ADDS METAR Data INFO
IDs: Format: Raw Decoded Include TAF

Data at: 0406 UTC 11 Dec 2017

KBHK 110351Z AUTO 29014KT 10SM CLR 04/M07 A3009 RMK AO2 SLP210 T00391072
KBHK 110251Z AUTO 27016KT 10SM CLR 04/M07 A3008 RMK AO2 SLP208 T00391072 56005
KBHK 110151Z AUTO 27010KT 10SM CLR 03/M07 A3009 RMK AO2 SLP211 T00331067
KBHK 110051Z AUTO 28012KT 10SM CLR 04/M06 A3010 RMK AO2 SLP211 T00441056
KBHK 102351Z AUTO 28007KT 10SM FEW100 SCT110 04/M04 A3010 RMK AO2 SLP216 T00391039 10100 20039 58005
KBHK 102251Z AUTO 26008KT 10SM CLR 06/M04 A3011 RMK AO2 SLP212 T00561044
KBHK 102151Z AUTO 29008KT 10SM CLR 08/M05 A3012 RMK AO2 SLP213 T00831050
KBHK 102051Z AUTO 27012KT 10SM CLR 10/M05 A3012 RMK AO2 SLP212 T01001050 56016
KBHK 101951Z AUTO 26012KT 10SM CLR 09/M05 A3013 RMK AO2 SLP217 T00941050
KBHK 101851Z AUTO 27014KT 10SM CLR 08/M06 A3015 RMK AO2 SLP227 T00781061
KBHK 101751Z AUTO 26014KT 10SM CLR 07/M07 A3017 RMK AO2 SLP231 T00721067 10072 21022 58007
KBHK 101651Z AUTO 25016KT 10SM CLR 05/M07 A3018 RMK AO2 SLP237 T00501072
KBHK 101551Z AUTO 25011KT 10SM CLR 02/M08 A3020 RMK AO2 SLP246 T00171078
KBHK 101451Z AUTO 25013KT 10SM CLR 00/M09 A3019 RMK AO2 SLP247 T00001089 55002
KBHK 101351Z AUTO 25012KT 10SM CLR M01/M08 A3019 RMK AO2 SLP244 T10061083
KBHK 101251Z AUTO 25010KT 10SM CLR M01/M08 A3019 RMK AO2 SLP246 T10061083
KBHK 101151Z AUTO 28006KT 10SM CLR M01/M09 A3020 RMK AO2 SLP246 T10111089 10022 21011 53003
KBHK 101051Z AUTO 28005KT 10SM CLR 01/M08 A3019 RMK AO2 SLP241 T00061083
KBHK 100951Z AUTO 25017KT 10SM CLR 01/M08 A3018 RMK AO2 SLP235 T00111078
KBHK 100851Z AUTO 25014KT 10SM CLR 01/M08 A3019 RMK AO2 SLP239 T00061078 53001
KBHK 100751Z AUTO 25018KT 10SM CLR 01/M08 A3018 RMK AO2 SLP235 T00111078
KBHK 100651Z AUTO 26015KT 10SM CLR 01/M08 A3018 RMK AO2 SLP237 T00061078 400831072
KBHK 100551Z AUTO 00000KT 10SM CLR 02/M08 A3018 RMK AO2 SLP239 T00221083 10061 20006 53009
KBHK 100451Z AUTO 26013KT 10SM CLR 03/M07 A3017 RMK AO2 SLP236 T00281072
KBHK 100351Z AUTO 28013KT 10SM CLR 02/M07 A3016 RMK AO2 SLP237 T00221072
KBHK 100251Z AUTO 28013KT 10SM CLR 03/M07 A3015 RMK AO2 SLP240 T00331072 51010
KBHK 100151Z AUTO 27016KT 10SM CLR 05/M07 A3015 RMK AO2 SLP235 T00501072
KBHK 100051Z AUTO 28012KT 10SM CLR 04/M06 A3014 RMK AO2 SLP235 T00391056
KBHK 092351Z AUTO 28016KT 10SM CLR 06/M06 A3012 RMK AO2 SLP225 T00611056 10083 20050 53006
KBHK 092251Z AUTO 28017KT 10SM CLR 07/M04 A3012 RMK AO2 SLP222 T00721044
KBHK 092151Z AUTO 28013KT 10SM CLR 08/M04 A3010 RMK AO2 SLP216 T00831039
KBHK 092051Z AUTO 28014KT 10SM CLR 08/M03 A3010 RMK AO2 SLP215 T00781033 58005
KBHK 091951Z AUTO 28014KT 10SM CLR 07/M04 A3011 RMK AO2 SLP218 T00721044
KBHK 091851Z AUTO 29015G21KT 10SM CLR 06/M05 A3012 RMK AO2 SLP225 T00611050
KBHK 091751Z AUTO 27017KT 10SM CLR 05/M05 A3012 RMK AO2 SLP225 T00501050 10050 21072 58009
KBHK 091651Z AUTO 27009KT 10SM CLR 02/M06 A3014 RMK AO2 SLP234 T00221061